This is the latest recevied weather packets stored in our database for station/object N4OGP-WX. If no packets are shown the sender has not sent any weather packets the latest 10 day(s).
| Time | Temp. | Humidity | Pressure | Rain* | Wind** | Luminosity | Snow |
|---|---|---|---|---|---|---|---|
| 1777608050 | 21.67° C | 88% | 1009.3 hPa | 0 mm | - | - | - |
| 1777607991 | 21.67° C | 88% | 1009.3 hPa | 0 mm | - | - | - |
| 1777607931 | 23.89° C | 42% | 1020.4 hPa | 0 mm | - | - | - |
| 1777607870 | 21.67° C | 88% | 1009.3 hPa | 0 mm | - | - | - |
| 1777607811 | 21.67° C | 88% | 1009.3 hPa | 0 mm | - | - | - |
| 1777607721 | 23.89° C | 42% | 1020.4 hPa | 0 mm | - | - | - |
| 1777607661 | 21.67° C | 88% | 1009.3 hPa | 0 mm | - | - | - |
| 1777607571 | 21.67° C | 88% | 1009.3 hPa | 0 mm | - | - | - |
| 1777607510 | 23.89° C | 42% | 1020.4 hPa | 0 mm | - | - | - |
| 1777607450 | 22.22° C | 88% | 1009.4 hPa | 0 mm | - | - | - |
| 1777607361 | 22.22° C | 88% | 1009.4 hPa | 0 mm | - | - | - |
| 1777607301 | 23.89° C | 42% | 1020.4 hPa | 0 mm | - | - | - |
| 1777607240 | 22.22° C | 87% | 1009.5 hPa | 0 mm | - | - | - |
| 1777607181 | 22.22° C | 87% | 1009.5 hPa | 0 mm | - | - | - |
| 1777607090 | 22.22° C | 87% | 1009.5 hPa | 0 mm | - | - | - |
| 1777607000 | 22.22° C | 87% | 1009.5 hPa | 0 mm | - | - | - |
| 1777606941 | 23.89° C | 42% | 1020.4 hPa | 0 mm | - | - | - |
| 1777606880 | 22.22° C | 87% | 1009.6 hPa | 0 mm | - | - | - |
| 1777606821 | 22.22° C | 86% | 1009.6 hPa | 0 mm | - | - | - |
| 1777606761 | 23.89° C | 42% | 1020.4 hPa | 0 mm | - | - | - |
| 1777606700 | 22.22° C | 86% | 1009.7 hPa | 0 mm | - | - | - |
| 1777606641 | 22.22° C | 86% | 1009.7 hPa | 0 mm | - | - | - |
| 1777606580 | 23.89° C | 42% | 1020.4 hPa | 0 mm | - | - | - |
| 1777606520 | 23.89° C | 42% | 1020.4 hPa | 0 mm | - | - | - |
| 1777606430 | 23.89° C | 42% | 1020.4 hPa | 0 mm | - | - | - |
* Rain latest hour (hover to see other rain measurements)
** Current wind speed in m/s (hover to see current wind gust speed)